sensor_id;sensor_type;location;lat;lon;timestamp;P1;durP1;ratioP1;P2;durP2;ratioP2
24143;SDS011;12307;50.828;6.080;2023-08-08T00:01:20;0.80;;;0.68;;
24143;SDS011;12307;50.828;6.080;2023-08-08T00:03:46;0.68;;;0.68;;
24143;SDS011;12307;50.828;6.080;2023-08-08T00:06:13;0.70;;;0.70;;
24143;SDS011;12307;50.828;6.080;2023-08-08T00:08:39;0.80;;;0.77;;
24143;SDS011;12307;50.828;6.080;2023-08-08T00:11:05;0.98;;;0.70;;
24143;SDS011;12307;50.828;6.080;2023-08-08T00:13:31;1.05;;;0.77;;
24143;SDS011;12307;50.828;6.080;2023-08-08T00:15:56;0.85;;;0.75;;
24143;SDS011;12307;50.828;6.080;2023-08-08T00:18:22;0.90;;;0.70;;
24143;SDS011;12307;50.828;6.080;2023-08-08T00:20:48;2.13;;;1.00;;
24143;SDS011;12307;50.828;6.080;2023-08-08T00:23:15;0.80;;;0.70;;
24143;SDS011;12307;50.828;6.080;2023-08-08T00:25:40;0.70;;;0.70;;
24143;SDS011;12307;50.828;6.080;2023-08-08T00:28:06;0.80;;;0.80;;
24143;SDS011;12307;50.828;6.080;2023-08-08T00:30:32;1.15;;;0.70;;
24143;SDS011;12307;50.828;6.080;2023-08-08T00:32:58;0.90;;;0.90;;
24143;SDS011;12307;50.828;6.080;2023-08-08T00:35:25;0.90;;;0.80;;
24143;SDS011;12307;50.828;6.080;2023-08-08T00:37:50;0.60;;;0.60;;
24143;SDS011;12307;50.828;6.080;2023-08-08T00:40:18;0.60;;;0.60;;
24143;SDS011;12307;50.828;6.080;2023-08-08T00:42:44;0.80;;;0.63;;
24143;SDS011;12307;50.828;6.080;2023-08-08T00:45:09;1.38;;;0.70;;
24143;SDS011;12307;50.828;6.080;2023-08-08T00:47:35;0.73;;;0.73;;
24143;SDS011;12307;50.828;6.080;2023-08-08T00:50:01;1.10;;;0.88;;
24143;SDS011;12307;50.828;6.080;2023-08-08T00:52:28;0.73;;;0.70;;
24143;SDS011;12307;50.828;6.080;2023-08-08T00:54:54;0.60;;;0.60;;
24143;SDS011;12307;50.828;6.080;2023-08-08T00:57:22;0.70;;;0.70;;
24143;SDS011;12307;50.828;6.080;2023-08-08T00:59:47;1.08;;;0.85;;
24143;SDS011;12307;50.828;6.080;2023-08-08T01:02:13;0.57;;;0.55;;
24143;SDS011;12307;50.828;6.080;2023-08-08T01:04:39;0.63;;;0.63;;
24143;SDS011;12307;50.828;6.080;2023-08-08T01:07:06;0.65;;;0.65;;
24143;SDS011;12307;50.828;6.080;2023-08-08T01:09:41;0.98;;;0.80;;
24143;SDS011;12307;50.828;6.080;2023-08-08T01:12:13;0.60;;;0.60;;
24143;SDS011;12307;50.828;6.080;2023-08-08T01:14:41;1.25;;;0.63;;
24143;SDS011;12307;50.828;6.080;2023-08-08T01:17:08;0.80;;;0.80;;
24143;SDS011;12307;50.828;6.080;2023-08-08T01:19:36;0.77;;;0.63;;
24143;SDS011;12307;50.828;6.080;2023-08-08T01:22:04;0.80;;;0.80;;
24143;SDS011;12307;50.828;6.080;2023-08-08T01:24:33;0.75;;;0.70;;
24143;SDS011;12307;50.828;6.080;2023-08-08T01:27:02;1.00;;;0.90;;
24143;SDS011;12307;50.828;6.080;2023-08-08T01:29:29;0.70;;;0.70;;
24143;SDS011;12307;50.828;6.080;2023-08-08T01:31:55;0.90;;;0.73;;
24143;SDS011;12307;50.828;6.080;2023-08-08T01:34:20;0.93;;;0.70;;
24143;SDS011;12307;50.828;6.080;2023-08-08T01:36:48;0.82;;;0.80;;
24143;SDS011;12307;50.828;6.080;2023-08-08T01:39:17;0.75;;;0.65;;
24143;SDS011;12307;50.828;6.080;2023-08-08T01:41:48;0.60;;;0.60;;
24143;SDS011;12307;50.828;6.080;2023-08-08T01:44:16;0.73;;;0.70;;
24143;SDS011;12307;50.828;6.080;2023-08-08T01:46:42;1.40;;;0.80;;
24143;SDS011;12307;50.828;6.080;2023-08-08T01:49:08;1.02;;;0.90;;
24143;SDS011;12307;50.828;6.080;2023-08-08T01:51:34;0.70;;;0.68;;
24143;SDS011;12307;50.828;6.080;2023-08-08T01:54:00;0.70;;;0.70;;
24143;SDS011;12307;50.828;6.080;2023-08-08T01:56:26;0.60;;;0.60;;
24143;SDS011;12307;50.828;6.080;2023-08-08T01:58:53;0.85;;;0.77;;
24143;SDS011;12307;50.828;6.080;2023-08-08T02:01:18;0.70;;;0.70;;
24143;SDS011;12307;50.828;6.080;2023-08-08T02:03:44;0.88;;;0.77;;
24143;SDS011;12307;50.828;6.080;2023-08-08T02:06:10;0.57;;;0.57;;
24143;SDS011;12307;50.828;6.080;2023-08-08T02:08:35;0.75;;;0.70;;
24143;SDS011;12307;50.828;6.080;2023-08-08T02:11:01;0.70;;;0.70;;
24143;SDS011;12307;50.828;6.080;2023-08-08T02:13:27;0.90;;;0.60;;
24143;SDS011;12307;50.828;6.080;2023-08-08T02:15:54;0.80;;;0.80;;
24143;SDS011;12307;50.828;6.080;2023-08-08T02:18:20;1.08;;;0.98;;
24143;SDS011;12307;50.828;6.080;2023-08-08T02:20:45;0.68;;;0.68;;
24143;SDS011;12307;50.828;6.080;2023-08-08T02:23:11;0.98;;;0.85;;
24143;SDS011;12307;50.828;6.080;2023-08-08T02:25:37;1.10;;;0.80;;
24143;SDS011;12307;50.828;6.080;2023-08-08T02:28:03;0.55;;;0.50;;
24143;SDS011;12307;50.828;6.080;2023-08-08T02:30:29;1.00;;;0.90;;
24143;SDS011;12307;50.828;6.080;2023-08-08T02:32:56;1.17;;;0.80;;
24143;SDS011;12307;50.828;6.080;2023-08-08T02:35:22;1.00;;;0.70;;
24143;SDS011;12307;50.828;6.080;2023-08-08T02:37:47;0.70;;;0.70;;
24143;SDS011;12307;50.828;6.080;2023-08-08T02:40:13;0.70;;;0.70;;
24143;SDS011;12307;50.828;6.080;2023-08-08T02:42:39;0.80;;;0.70;;
24143;SDS011;12307;50.828;6.080;2023-08-08T02:45:05;0.85;;;0.80;;
24143;SDS011;12307;50.828;6.080;2023-08-08T02:47:31;0.70;;;0.70;;
24143;SDS011;12307;50.828;6.080;2023-08-08T02:49:58;1.25;;;0.77;;
24143;SDS011;12307;50.828;6.080;2023-08-08T02:52:24;1.75;;;0.60;;
24143;SDS011;12307;50.828;6.080;2023-08-08T02:54:50;0.75;;;0.70;;
24143;SDS011;12307;50.828;6.080;2023-08-08T02:57:16;0.80;;;0.80;;
24143;SDS011;12307;50.828;6.080;2023-08-08T02:59:41;0.70;;;0.60;;
24143;SDS011;12307;50.828;6.080;2023-08-08T03:02:07;1.00;;;0.90;;
24143;SDS011;12307;50.828;6.080;2023-08-08T03:04:33;0.70;;;0.70;;
24143;SDS011;12307;50.828;6.080;2023-08-08T03:07:00;0.93;;;0.80;;
24143;SDS011;12307;50.828;6.080;2023-08-08T03:09:29;0.70;;;0.70;;
24143;SDS011;12307;50.828;6.080;2023-08-08T03:11:55;0.80;;;0.80;;
24143;SDS011;12307;50.828;6.080;2023-08-08T03:14:20;0.70;;;0.70;;
24143;SDS011;12307;50.828;6.080;2023-08-08T03:16:46;0.70;;;0.70;;
24143;SDS011;12307;50.828;6.080;2023-08-08T03:19:12;1.10;;;0.73;;
24143;SDS011;12307;50.828;6.080;2023-08-08T03:21:37;0.90;;;0.70;;
24143;SDS011;12307;50.828;6.080;2023-08-08T03:24:05;0.60;;;0.60;;
24143;SDS011;12307;50.828;6.080;2023-08-08T03:26:30;0.60;;;0.60;;
24143;SDS011;12307;50.828;6.080;2023-08-08T03:28:56;0.80;;;0.80;;
24143;SDS011;12307;50.828;6.080;2023-08-08T03:31:22;0.57;;;0.55;;
24143;SDS011;12307;50.828;6.080;2023-08-08T03:33:48;0.60;;;0.60;;
24143;SDS011;12307;50.828;6.080;2023-08-08T03:36:14;0.47;;;0.45;;
24143;SDS011;12307;50.828;6.080;2023-08-08T03:38:40;0.60;;;0.60;;
24143;SDS011;12307;50.828;6.080;2023-08-08T03:41:10;0.70;;;0.70;;
24143;SDS011;12307;50.828;6.080;2023-08-08T03:43:36;0.80;;;0.70;;
24143;SDS011;12307;50.828;6.080;2023-08-08T03:46:02;0.52;;;0.52;;
24143;SDS011;12307;50.828;6.080;2023-08-08T03:48:28;0.70;;;0.70;;
24143;SDS011;12307;50.828;6.080;2023-08-08T03:50:54;0.93;;;0.70;;
24143;SDS011;12307;50.828;6.080;2023-08-08T03:53:19;0.95;;;0.70;;
24143;SDS011;12307;50.828;6.080;2023-08-08T03:55:45;0.85;;;0.65;;
24143;SDS011;12307;50.828;6.080;2023-08-08T03:58:12;0.50;;;0.50;;
24143;SDS011;12307;50.828;6.080;2023-08-08T04:00:38;0.70;;;0.70;;
24143;SDS011;12307;50.828;6.080;2023-08-08T04:03:10;0.70;;;0.68;;
24143;SDS011;12307;50.828;6.080;2023-08-08T04:05:37;0.65;;;0.65;;
24143;SDS011;12307;50.828;6.080;2023-08-08T04:08:03;0.50;;;0.50;;
24143;SDS011;12307;50.828;6.080;2023-08-08T04:10:29;0.85;;;0.70;;
24143;SDS011;12307;50.828;6.080;2023-08-08T04:12:54;0.70;;;0.70;;
24143;SDS011;12307;50.828;6.080;2023-08-08T04:15:21;0.93;;;0.60;;
24143;SDS011;12307;50.828;6.080;2023-08-08T04:17:47;0.85;;;0.70;;
24143;SDS011;12307;50.828;6.080;2023-08-08T04:20:13;0.70;;;0.70;;
24143;SDS011;12307;50.828;6.080;2023-08-08T04:22:39;1.00;;;0.68;;
24143;SDS011;12307;50.828;6.080;2023-08-08T04:25:05;0.70;;;0.60;;
24143;SDS011;12307;50.828;6.080;2023-08-08T04:27:31;1.10;;;0.80;;
24143;SDS011;12307;50.828;6.080;2023-08-08T04:29:57;1.35;;;0.57;;
24143;SDS011;12307;50.828;6.080;2023-08-08T04:32:25;0.70;;;0.70;;
24143;SDS011;12307;50.828;6.080;2023-08-08T04:34:50;0.90;;;0.90;;
24143;SDS011;12307;50.828;6.080;2023-08-08T04:37:16;0.80;;;0.70;;
24143;SDS011;12307;50.828;6.080;2023-08-08T04:39:42;0.85;;;0.70;;
24143;SDS011;12307;50.828;6.080;2023-08-08T04:42:07;0.70;;;0.63;;
24143;SDS011;12307;50.828;6.080;2023-08-08T04:44:33;0.65;;;0.60;;
24143;SDS011;12307;50.828;6.080;2023-08-08T04:46:59;0.90;;;0.70;;
24143;SDS011;12307;50.828;6.080;2023-08-08T04:49:26;0.55;;;0.55;;
24143;SDS011;12307;50.828;6.080;2023-08-08T04:51:51;0.73;;;0.73;;
24143;SDS011;12307;50.828;6.080;2023-08-08T04:54:17;0.60;;;0.60;;
24143;SDS011;12307;50.828;6.080;2023-08-08T04:56:43;0.70;;;0.70;;
24143;SDS011;12307;50.828;6.080;2023-08-08T04:59:08;0.73;;;0.70;;
24143;SDS011;12307;50.828;6.080;2023-08-08T05:01:34;0.63;;;0.63;;
24143;SDS011;12307;50.828;6.080;2023-08-08T05:04:00;0.68;;;0.60;;
24143;SDS011;12307;50.828;6.080;2023-08-08T05:06:27;0.90;;;0.80;;
24143;SDS011;12307;50.828;6.080;2023-08-08T05:08:53;0.70;;;0.70;;
24143;SDS011;12307;50.828;6.080;2023-08-08T05:11:19;0.63;;;0.63;;
24143;SDS011;12307;50.828;6.080;2023-08-08T05:13:44;0.60;;;0.60;;
24143;SDS011;12307;50.828;6.080;2023-08-08T05:16:10;0.93;;;0.75;;
24143;SDS011;12307;50.828;6.080;2023-08-08T05:18:36;0.85;;;0.65;;
24143;SDS011;12307;50.828;6.080;2023-08-08T05:21:02;0.70;;;0.70;;
24143;SDS011;12307;50.828;6.080;2023-08-08T05:23:29;0.60;;;0.60;;
24143;SDS011;12307;50.828;6.080;2023-08-08T05:25:54;1.00;;;0.77;;
24143;SDS011;12307;50.828;6.080;2023-08-08T05:28:20;0.60;;;0.60;;
24143;SDS011;12307;50.828;6.080;2023-08-08T05:30:46;0.73;;;0.70;;
24143;SDS011;12307;50.828;6.080;2023-08-08T05:33:12;1.02;;;0.80;;
24143;SDS011;12307;50.828;6.080;2023-08-08T05:35:38;1.52;;;0.60;;
24143;SDS011;12307;50.828;6.080;2023-08-08T05:38:04;0.60;;;0.60;;
24143;SDS011;12307;50.828;6.080;2023-08-08T05:40:31;0.90;;;0.60;;
24143;SDS011;12307;50.828;6.080;2023-08-08T05:42:59;0.90;;;0.68;;
24143;SDS011;12307;50.828;6.080;2023-08-08T05:45:25;0.90;;;0.73;;
24143;SDS011;12307;50.828;6.080;2023-08-08T05:47:50;0.60;;;0.60;;
24143;SDS011;12307;50.828;6.080;2023-08-08T05:50:16;0.68;;;0.68;;
24143;SDS011;12307;50.828;6.080;2023-08-08T05:52:42;0.68;;;0.63;;
24143;SDS011;12307;50.828;6.080;2023-08-08T05:55:08;0.70;;;0.60;;
24143;SDS011;12307;50.828;6.080;2023-08-08T05:57:35;0.80;;;0.70;;
24143;SDS011;12307;50.828;6.080;2023-08-08T06:00:02;0.93;;;0.75;;
24143;SDS011;12307;50.828;6.080;2023-08-08T06:02:29;0.85;;;0.60;;
24143;SDS011;12307;50.828;6.080;2023-08-08T06:04:55;0.60;;;0.60;;
24143;SDS011;12307;50.828;6.080;2023-08-08T06:07:21;1.23;;;0.68;;
24143;SDS011;12307;50.828;6.080;2023-08-08T06:09:47;0.70;;;0.65;;
24143;SDS011;12307;50.828;6.080;2023-08-08T06:12:13;0.52;;;0.52;;
24143;SDS011;12307;50.828;6.080;2023-08-08T06:14:40;0.70;;;0.63;;
24143;SDS011;12307;50.828;6.080;2023-08-08T06:17:05;0.80;;;0.70;;
24143;SDS011;12307;50.828;6.080;2023-08-08T06:19:31;0.60;;;0.57;;
24143;SDS011;12307;50.828;6.080;2023-08-08T06:21:57;1.35;;;0.68;;
24143;SDS011;12307;50.828;6.080;2023-08-08T06:24:22;0.77;;;0.70;;
24143;SDS011;12307;50.828;6.080;2023-08-08T06:26:48;0.80;;;0.60;;
24143;SDS011;12307;50.828;6.080;2023-08-08T06:29:14;0.80;;;0.73;;
24143;SDS011;12307;50.828;6.080;2023-08-08T06:31:41;1.00;;;0.75;;
24143;SDS011;12307;50.828;6.080;2023-08-08T06:34:07;0.60;;;0.60;;
24143;SDS011;12307;50.828;6.080;2023-08-08T06:36:33;0.85;;;0.70;;
24143;SDS011;12307;50.828;6.080;2023-08-08T06:38:58;0.70;;;0.70;;
24143;SDS011;12307;50.828;6.080;2023-08-08T06:41:24;0.95;;;0.70;;
24143;SDS011;12307;50.828;6.080;2023-08-08T06:43:50;0.70;;;0.70;;
24143;SDS011;12307;50.828;6.080;2023-08-08T06:46:17;0.70;;;0.70;;
24143;SDS011;12307;50.828;6.080;2023-08-08T06:48:46;0.63;;;0.57;;
24143;SDS011;12307;50.828;6.080;2023-08-08T06:51:12;0.63;;;0.60;;
24143;SDS011;12307;50.828;6.080;2023-08-08T06:53:38;1.27;;;0.73;;
24143;SDS011;12307;50.828;6.080;2023-08-08T06:56:04;0.85;;;0.70;;
24143;SDS011;12307;50.828;6.080;2023-08-08T06:58:29;0.88;;;0.82;;
24143;SDS011;12307;50.828;6.080;2023-08-08T07:00:55;0.98;;;0.80;;
24143;SDS011;12307;50.828;6.080;2023-08-08T07:03:21;0.88;;;0.73;;
24143;SDS011;12307;50.828;6.080;2023-08-08T07:05:48;1.95;;;0.80;;
24143;SDS011;12307;50.828;6.080;2023-08-08T07:08:17;1.83;;;1.00;;
24143;SDS011;12307;50.828;6.080;2023-08-08T07:10:42;1.45;;;1.00;;
24143;SDS011;12307;50.828;6.080;2023-08-08T07:13:08;1.50;;;1.10;;
24143;SDS011;12307;50.828;6.080;2023-08-08T07:15:34;1.60;;;0.95;;
24143;SDS011;12307;50.828;6.080;2023-08-08T07:18:00;1.30;;;1.15;;
24143;SDS011;12307;50.828;6.080;2023-08-08T07:20:25;2.15;;;1.40;;
24143;SDS011;12307;50.828;6.080;2023-08-08T07:22:52;1.48;;;1.10;;
24143;SDS011;12307;50.828;6.080;2023-08-08T07:25:18;1.42;;;0.95;;
24143;SDS011;12307;50.828;6.080;2023-08-08T07:27:44;2.50;;;1.30;;
24143;SDS011;12307;50.828;6.080;2023-08-08T07:30:10;2.13;;;1.30;;
24143;SDS011;12307;50.828;6.080;2023-08-08T07:32:36;3.05;;;1.25;;
24143;SDS011;12307;50.828;6.080;2023-08-08T07:35:02;1.85;;;1.38;;
24143;SDS011;12307;50.828;6.080;2023-08-08T07:37:31;1.85;;;1.10;;
24143;SDS011;12307;50.828;6.080;2023-08-08T07:40:00;1.65;;;1.20;;
24143;SDS011;12307;50.828;6.080;2023-08-08T07:42:26;1.60;;;1.17;;
24143;SDS011;12307;50.828;6.080;2023-08-08T07:48:03;1.48;;;1.15;;
24143;SDS011;12307;50.828;6.080;2023-08-08T07:50:29;1.52;;;1.20;;
24143;SDS011;12307;50.828;6.080;2023-08-08T07:52:55;2.08;;;1.20;;
24143;SDS011;12307;50.828;6.080;2023-08-08T07:55:22;2.53;;;1.20;;
24143;SDS011;12307;50.828;6.080;2023-08-08T07:57:48;1.55;;;1.20;;
24143;SDS011;12307;50.828;6.080;2023-08-08T08:00:14;2.22;;;1.25;;
24143;SDS011;12307;50.828;6.080;2023-08-08T08:02:43;1.92;;;1.15;;
24143;SDS011;12307;50.828;6.080;2023-08-08T08:05:10;1.75;;;1.48;;
24143;SDS011;12307;50.828;6.080;2023-08-08T08:07:37;1.67;;;1.20;;
24143;SDS011;12307;50.828;6.080;2023-08-08T08:10:03;1.00;;;0.90;;
24143;SDS011;12307;50.828;6.080;2023-08-08T08:12:31;1.48;;;1.15;;
24143;SDS011;12307;50.828;6.080;2023-08-08T08:14:58;1.85;;;1.20;;
24143;SDS011;12307;50.828;6.080;2023-08-08T08:17:24;1.38;;;1.02;;
24143;SDS011;12307;50.828;6.080;2023-08-08T08:19:50;1.50;;;1.10;;
24143;SDS011;12307;50.828;6.080;2023-08-08T08:22:16;1.95;;;1.30;;
24143;SDS011;12307;50.828;6.080;2023-08-08T08:24:41;1.13;;;0.93;;
24143;SDS011;12307;50.828;6.080;2023-08-08T08:27:07;1.60;;;1.10;;
24143;SDS011;12307;50.828;6.080;2023-08-08T08:29:36;1.50;;;1.23;;
24143;SDS011;12307;50.828;6.080;2023-08-08T08:32:02;1.65;;;1.10;;
24143;SDS011;12307;50.828;6.080;2023-08-08T08:34:28;1.58;;;1.02;;
24143;SDS011;12307;50.828;6.080;2023-08-08T08:36:54;1.10;;;0.95;;
24143;SDS011;12307;50.828;6.080;2023-08-08T08:39:19;1.10;;;1.00;;
24143;SDS011;12307;50.828;6.080;2023-08-08T08:41:46;1.70;;;1.20;;
24143;SDS011;12307;50.828;6.080;2023-08-08T08:44:14;1.30;;;1.08;;
24143;SDS011;12307;50.828;6.080;2023-08-08T08:46:43;1.77;;;1.10;;
24143;SDS011;12307;50.828;6.080;2023-08-08T08:49:13;0.95;;;0.80;;
24143;SDS011;12307;50.828;6.080;2023-08-08T08:51:39;1.35;;;1.10;;
24143;SDS011;12307;50.828;6.080;2023-08-08T08:54:05;1.17;;;0.95;;
24143;SDS011;12307;50.828;6.080;2023-08-08T08:56:31;1.25;;;1.13;;
24143;SDS011;12307;50.828;6.080;2023-08-08T08:58:58;1.70;;;1.10;;
24143;SDS011;12307;50.828;6.080;2023-08-08T09:01:25;1.13;;;0.90;;
24143;SDS011;12307;50.828;6.080;2023-08-08T09:03:54;1.42;;;1.05;;
24143;SDS011;12307;50.828;6.080;2023-08-08T09:06:20;1.58;;;1.00;;
24143;SDS011;12307;50.828;6.080;2023-08-08T09:08:48;1.25;;;1.08;;
24143;SDS011;12307;50.828;6.080;2023-08-08T09:11:14;0.80;;;0.80;;
24143;SDS011;12307;50.828;6.080;2023-08-08T09:13:39;1.33;;;1.00;;
24143;SDS011;12307;50.828;6.080;2023-08-08T09:16:06;1.20;;;0.90;;
24143;SDS011;12307;50.828;6.080;2023-08-08T09:18:32;1.30;;;1.00;;
24143;SDS011;12307;50.828;6.080;2023-08-08T09:20:59;1.40;;;0.90;;
24143;SDS011;12307;50.828;6.080;2023-08-08T09:23:25;1.55;;;0.88;;
24143;SDS011;12307;50.828;6.080;2023-08-08T09:25:51;1.27;;;1.05;;
24143;SDS011;12307;50.828;6.080;2023-08-08T09:28:17;0.98;;;0.80;;
24143;SDS011;12307;50.828;6.080;2023-08-08T09:30:43;1.13;;;0.90;;
24143;SDS011;12307;50.828;6.080;2023-08-08T09:33:09;1.75;;;0.90;;
24143;SDS011;12307;50.828;6.080;2023-08-08T09:35:37;1.13;;;0.80;;
24143;SDS011;12307;50.828;6.080;2023-08-08T09:38:06;1.00;;;0.90;;
24143;SDS011;12307;50.828;6.080;2023-08-08T09:40:32;2.33;;;1.00;;
24143;SDS011;12307;50.828;6.080;2023-08-08T09:42:59;1.92;;;0.82;;
24143;SDS011;12307;50.828;6.080;2023-08-08T09:45:24;1.67;;;0.90;;
24143;SDS011;12307;50.828;6.080;2023-08-08T09:47:50;1.60;;;1.20;;
24143;SDS011;12307;50.828;6.080;2023-08-08T09:50:19;1.08;;;0.90;;
24143;SDS011;12307;50.828;6.080;2023-08-08T09:52:45;1.88;;;1.08;;
24143;SDS011;12307;50.828;6.080;2023-08-08T09:55:13;1.13;;;0.90;;
24143;SDS011;12307;50.828;6.080;2023-08-08T09:57:39;1.13;;;0.75;;
24143;SDS011;12307;50.828;6.080;2023-08-08T10:00:07;1.75;;;1.00;;
24143;SDS011;12307;50.828;6.080;2023-08-08T10:02:40;2.55;;;0.90;;
24143;SDS011;12307;50.828;6.080;2023-08-08T10:05:07;1.42;;;1.00;;
24143;SDS011;12307;50.828;6.080;2023-08-08T10:07:34;1.45;;;0.88;;
24143;SDS011;12307;50.828;6.080;2023-08-08T10:10:00;1.05;;;0.82;;
24143;SDS011;12307;50.828;6.080;2023-08-08T10:12:28;0.90;;;0.80;;
24143;SDS011;12307;50.828;6.080;2023-08-08T10:14:54;1.10;;;0.90;;
24143;SDS011;12307;50.828;6.080;2023-08-08T10:17:20;1.30;;;0.93;;
24143;SDS011;12307;50.828;6.080;2023-08-08T10:19:49;1.27;;;0.93;;
24143;SDS011;12307;50.828;6.080;2023-08-08T10:22:19;1.10;;;0.90;;
24143;SDS011;12307;50.828;6.080;2023-08-08T10:24:46;1.27;;;1.00;;
24143;SDS011;12307;50.828;6.080;2023-08-08T10:27:13;1.05;;;0.80;;
24143;SDS011;12307;50.828;6.080;2023-08-08T10:29:41;0.95;;;0.88;;
24143;SDS011;12307;50.828;6.080;2023-08-08T10:32:12;1.75;;;0.95;;
24143;SDS011;12307;50.828;6.080;2023-08-08T10:34:49;1.20;;;0.73;;
24143;SDS011;12307;50.828;6.080;2023-08-08T10:37:20;1.13;;;0.90;;
24143;SDS011;12307;50.828;6.080;2023-08-08T10:39:50;1.13;;;0.90;;
24143;SDS011;12307;50.828;6.080;2023-08-08T10:42:17;1.33;;;1.00;;
24143;SDS011;12307;50.828;6.080;2023-08-08T10:44:49;1.00;;;0.82;;
24143;SDS011;12307;50.828;6.080;2023-08-08T10:47:20;1.13;;;0.80;;
24143;SDS011;12307;50.828;6.080;2023-08-08T10:49:55;1.42;;;0.88;;
24143;SDS011;12307;50.828;6.080;2023-08-08T10:52:22;1.63;;;1.00;;
24143;SDS011;12307;50.828;6.080;2023-08-08T10:54:51;2.50;;;0.80;;
24143;SDS011;12307;50.828;6.080;2023-08-08T10:57:18;1.10;;;0.85;;
24143;SDS011;12307;50.828;6.080;2023-08-08T10:59:45;2.05;;;0.98;;
24143;SDS011;12307;50.828;6.080;2023-08-08T11:02:12;1.73;;;0.90;;
24143;SDS011;12307;50.828;6.080;2023-08-08T11:04:39;1.13;;;0.80;;
24143;SDS011;12307;50.828;6.080;2023-08-08T11:07:06;1.40;;;0.98;;
24143;SDS011;12307;50.828;6.080;2023-08-08T11:09:32;1.13;;;0.90;;
24143;SDS011;12307;50.828;6.080;2023-08-08T11:11:58;1.95;;;0.90;;
24143;SDS011;12307;50.828;6.080;2023-08-08T11:14:24;1.65;;;0.93;;
24143;SDS011;12307;50.828;6.080;2023-08-08T11:16:51;1.15;;;0.90;;
24143;SDS011;12307;50.828;6.080;2023-08-08T11:19:17;1.42;;;0.82;;
24143;SDS011;12307;50.828;6.080;2023-08-08T11:21:48;1.38;;;0.95;;
24143;SDS011;12307;50.828;6.080;2023-08-08T11:24:14;0.95;;;0.82;;
24143;SDS011;12307;50.828;6.080;2023-08-08T11:26:41;2.17;;;0.93;;
24143;SDS011;12307;50.828;6.080;2023-08-08T11:29:10;1.15;;;1.00;;
24143;SDS011;12307;50.828;6.080;2023-08-08T11:31:36;1.85;;;1.00;;
24143;SDS011;12307;50.828;6.080;2023-08-08T11:34:04;1.92;;;0.98;;
24143;SDS011;12307;50.828;6.080;2023-08-08T11:36:30;1.13;;;1.00;;
24143;SDS011;12307;50.828;6.080;2023-08-08T11:38:57;1.38;;;0.82;;
24143;SDS011;12307;50.828;6.080;2023-08-08T11:41:26;2.28;;;0.93;;
24143;SDS011;12307;50.828;6.080;2023-08-08T11:43:52;1.73;;;1.00;;
24143;SDS011;12307;50.828;6.080;2023-08-08T11:46:18;1.20;;;0.80;;
24143;SDS011;12307;50.828;6.080;2023-08-08T11:48:47;1.38;;;1.00;;
24143;SDS011;12307;50.828;6.080;2023-08-08T11:51:15;1.40;;;0.90;;
24143;SDS011;12307;50.828;6.080;2023-08-08T11:53:47;1.58;;;0.88;;
24143;SDS011;12307;50.828;6.080;2023-08-08T11:56:15;1.40;;;0.80;;
24143;SDS011;12307;50.828;6.080;2023-08-08T11:58:41;1.20;;;0.90;;
24143;SDS011;12307;50.828;6.080;2023-08-08T12:01:07;1.00;;;0.82;;
24143;SDS011;12307;50.828;6.080;2023-08-08T12:03:34;0.88;;;0.80;;
24143;SDS011;12307;50.828;6.080;2023-08-08T12:06:05;1.35;;;1.00;;
24143;SDS011;12307;50.828;6.080;2023-08-08T12:08:39;1.05;;;0.73;;
24143;SDS011;12307;50.828;6.080;2023-08-08T12:11:08;1.10;;;0.70;;
24143;SDS011;12307;50.828;6.080;2023-08-08T12:13:34;1.52;;;0.90;;
24143;SDS011;12307;50.828;6.080;2023-08-08T12:16:03;0.90;;;0.80;;
24143;SDS011;12307;50.828;6.080;2023-08-08T12:18:30;1.80;;;1.00;;
24143;SDS011;12307;50.828;6.080;2023-08-08T12:20:57;1.20;;;0.80;;
24143;SDS011;12307;50.828;6.080;2023-08-08T12:23:23;0.80;;;0.80;;
24143;SDS011;12307;50.828;6.080;2023-08-08T12:25:53;2.10;;;1.27;;
24143;SDS011;12307;50.828;6.080;2023-08-08T12:28:19;1.55;;;1.10;;
24143;SDS011;12307;50.828;6.080;2023-08-08T12:30:45;1.40;;;0.88;;
24143;SDS011;12307;50.828;6.080;2023-08-08T12:33:11;1.73;;;1.10;;
24143;SDS011;12307;50.828;6.080;2023-08-08T12:35:36;2.00;;;1.00;;
24143;SDS011;12307;50.828;6.080;2023-08-08T12:38:02;2.00;;;0.98;;
24143;SDS011;12307;50.828;6.080;2023-08-08T12:40:28;1.13;;;0.95;;
24143;SDS011;12307;50.828;6.080;2023-08-08T12:42:56;1.48;;;1.02;;
24143;SDS011;12307;50.828;6.080;2023-08-08T12:45:22;1.50;;;0.95;;
24143;SDS011;12307;50.828;6.080;2023-08-08T12:47:48;1.48;;;0.93;;
24143;SDS011;12307;50.828;6.080;2023-08-08T12:50:13;1.65;;;1.00;;
24143;SDS011;12307;50.828;6.080;2023-08-08T12:52:39;1.73;;;1.23;;
24143;SDS011;12307;50.828;6.080;2023-08-08T12:55:06;1.27;;;0.80;;
24143;SDS011;12307;50.828;6.080;2023-08-08T12:57:32;1.50;;;0.90;;
24143;SDS011;12307;50.828;6.080;2023-08-08T13:00:00;1.15;;;0.80;;
24143;SDS011;12307;50.828;6.080;2023-08-08T13:02:26;1.35;;;0.80;;
24143;SDS011;12307;50.828;6.080;2023-08-08T13:04:51;1.80;;;0.90;;
24143;SDS011;12307;50.828;6.080;2023-08-08T13:07:17;1.48;;;1.10;;
24143;SDS011;12307;50.828;6.080;2023-08-08T13:09:43;1.15;;;0.90;;
24143;SDS011;12307;50.828;6.080;2023-08-08T13:12:09;1.80;;;0.90;;
24143;SDS011;12307;50.828;6.080;2023-08-08T13:14:34;1.30;;;1.05;;
24143;SDS011;12307;50.828;6.080;2023-08-08T13:17:02;1.85;;;0.88;;
24143;SDS011;12307;50.828;6.080;2023-08-08T13:19:28;1.00;;;0.90;;
24143;SDS011;12307;50.828;6.080;2023-08-08T13:21:54;1.27;;;0.80;;
24143;SDS011;12307;50.828;6.080;2023-08-08T13:24:20;1.23;;;1.02;;
24143;SDS011;12307;50.828;6.080;2023-08-08T13:26:49;1.63;;;1.05;;
24143;SDS011;12307;50.828;6.080;2023-08-08T13:29:15;1.13;;;0.82;;
24143;SDS011;12307;50.828;6.080;2023-08-08T13:31:41;1.05;;;0.90;;
24143;SDS011;12307;50.828;6.080;2023-08-08T13:34:09;1.10;;;1.00;;
24143;SDS011;12307;50.828;6.080;2023-08-08T13:36:35;1.73;;;1.00;;
24143;SDS011;12307;50.828;6.080;2023-08-08T13:39:01;1.27;;;0.90;;
24143;SDS011;12307;50.828;6.080;2023-08-08T13:41:27;1.50;;;1.00;;
24143;SDS011;12307;50.828;6.080;2023-08-08T13:43:55;1.52;;;1.00;;
24143;SDS011;12307;50.828;6.080;2023-08-08T13:46:21;1.23;;;0.93;;
24143;SDS011;12307;50.828;6.080;2023-08-08T13:48:47;1.20;;;1.10;;
24143;SDS011;12307;50.828;6.080;2023-08-08T13:51:14;2.35;;;1.15;;
24143;SDS011;12307;50.828;6.080;2023-08-08T13:53:40;1.70;;;0.82;;
24143;SDS011;12307;50.828;6.080;2023-08-08T13:56:06;0.85;;;0.75;;
24143;SDS011;12307;50.828;6.080;2023-08-08T13:58:32;1.92;;;0.95;;
24143;SDS011;12307;50.828;6.080;2023-08-08T14:00:58;1.00;;;0.90;;
24143;SDS011;12307;50.828;6.080;2023-08-08T14:03:25;1.23;;;0.82;;
24143;SDS011;12307;50.828;6.080;2023-08-08T14:05:50;1.63;;;1.00;;
24143;SDS011;12307;50.828;6.080;2023-08-08T14:08:20;1.42;;;0.90;;
24143;SDS011;12307;50.828;6.080;2023-08-08T14:10:46;0.90;;;0.80;;
24143;SDS011;12307;50.828;6.080;2023-08-08T14:13:12;0.98;;;0.80;;
24143;SDS011;12307;50.828;6.080;2023-08-08T14:15:38;0.93;;;0.82;;
24143;SDS011;12307;50.828;6.080;2023-08-08T14:18:04;0.98;;;0.82;;
24143;SDS011;12307;50.828;6.080;2023-08-08T14:20:30;1.33;;;0.88;;
24143;SDS011;12307;50.828;6.080;2023-08-08T14:22:55;1.27;;;1.00;;
24143;SDS011;12307;50.828;6.080;2023-08-08T14:25:23;1.25;;;0.70;;
24143;SDS011;12307;50.828;6.080;2023-08-08T14:27:48;1.20;;;0.90;;
24143;SDS011;12307;50.828;6.080;2023-08-08T14:30:14;1.33;;;0.90;;
24143;SDS011;12307;50.828;6.080;2023-08-08T14:32:40;0.93;;;0.85;;
24143;SDS011;12307;50.828;6.080;2023-08-08T14:35:06;1.77;;;0.90;;
24143;SDS011;12307;50.828;6.080;2023-08-08T14:37:33;1.02;;;0.88;;
24143;SDS011;12307;50.828;6.080;2023-08-08T14:40:00;0.88;;;0.80;;
24143;SDS011;12307;50.828;6.080;2023-08-08T14:42:27;0.80;;;0.73;;
24143;SDS011;12307;50.828;6.080;2023-08-08T14:44:53;0.93;;;0.80;;
24143;SDS011;12307;50.828;6.080;2023-08-08T14:47:19;1.17;;;0.77;;